sensor_id;sensor_type;location;lat;lon;timestamp;pressure;altitude;pressure_sealevel;temperature;humidity
78016;BME280;67223;51.102;5.882;2023-03-14T00:01:15;98985.59;;;10.35;81.51
78016;BME280;67223;51.102;5.882;2023-03-14T00:03:41;98968.19;;;10.48;81.35
78016;BME280;67223;51.102;5.882;2023-03-14T00:06:07;98967.41;;;10.23;81.94
78016;BME280;67223;51.102;5.882;2023-03-14T00:08:33;98965.09;;;10.20;81.84
78016;BME280;67223;51.102;5.882;2023-03-14T00:11:04;98968.72;;;10.27;82.03
78016;BME280;67223;51.102;5.882;2023-03-14T00:13:30;98971.72;;;10.32;81.75
78016;BME280;67223;51.102;5.882;2023-03-14T00:16:01;98975.56;;;10.05;81.83
78016;BME280;67223;51.102;5.882;2023-03-14T00:18:27;98983.03;;;10.02;82.02
78016;BME280;67223;51.102;5.882;2023-03-14T00:20:52;98993.88;;;10.08;81.24
78016;BME280;67223;51.102;5.882;2023-03-14T00:23:17;99000.22;;;9.99;81.01
78016;BME280;67223;51.102;5.882;2023-03-14T00:25:43;98993.91;;;10.00;81.03
78016;BME280;67223;51.102;5.882;2023-03-14T00:28:08;98997.38;;;9.92;80.61
78016;BME280;67223;51.102;5.882;2023-03-14T00:30:34;98998.88;;;9.95;80.21
78016;BME280;67223;51.102;5.882;2023-03-14T00:33:02;99004.03;;;9.80;80.44
78016;BME280;67223;51.102;5.882;2023-03-14T00:35:27;99003.53;;;9.85;80.36
78016;BME280;67223;51.102;5.882;2023-03-14T00:37:52;98997.53;;;9.83;79.95
78016;BME280;67223;51.102;5.882;2023-03-14T00:40:18;98988.19;;;9.71;80.19
78016;BME280;67223;51.102;5.882;2023-03-14T00:42:43;98991.84;;;9.78;79.77
78016;BME280;67223;51.102;5.882;2023-03-14T00:45:09;98997.19;;;9.70;79.68
78016;BME280;67223;51.102;5.882;2023-03-14T00:47:35;98996.84;;;9.73;79.81
78016;BME280;67223;51.102;5.882;2023-03-14T00:50:00;99000.38;;;9.89;79.13
78016;BME280;67223;51.102;5.882;2023-03-14T00:52:26;99004.03;;;9.80;79.20
78016;BME280;67223;51.102;5.882;2023-03-14T00:54:51;99002.53;;;10.02;78.97
78016;BME280;67223;51.102;5.882;2023-03-14T00:57:17;98999.19;;;9.84;79.24
78016;BME280;67223;51.102;5.882;2023-03-14T00:59:43;99005.56;;;9.91;78.74
78016;BME280;67223;51.102;5.882;2023-03-14T01:02:08;99006.06;;;10.27;79.30
78016;BME280;67223;51.102;5.882;2023-03-14T01:04:33;99002.91;;;10.15;78.41
78016;BME280;67223;51.102;5.882;2023-03-14T01:06:59;99008.22;;;10.48;78.06
78016;BME280;67223;51.102;5.882;2023-03-14T01:09:25;99002.72;;;10.09;78.26
78016;BME280;67223;51.102;5.882;2023-03-14T01:11:50;98991.88;;;10.02;78.68
78016;BME280;67223;51.102;5.882;2023-03-14T01:14:16;98993.03;;;9.91;79.16
78016;BME280;67223;51.102;5.882;2023-03-14T01:16:41;98987.84;;;9.82;79.20
78016;BME280;67223;51.102;5.882;2023-03-14T01:19:06;98987.19;;;9.88;79.24
78016;BME280;67223;51.102;5.882;2023-03-14T01:21:34;98977.69;;;9.77;79.48
78016;BME280;67223;51.102;5.882;2023-03-14T01:24:01;98984.34;;;9.81;79.49
78016;BME280;67223;51.102;5.882;2023-03-14T01:26:30;98971.22;;;9.88;79.70
78016;BME280;67223;51.102;5.882;2023-03-14T01:28:56;98960.56;;;9.80;79.86
78016;BME280;67223;51.102;5.882;2023-03-14T01:31:22;98970.22;;;9.89;79.86
78016;BME280;67223;51.102;5.882;2023-03-14T01:33:48;98959.56;;;9.81;80.11
78016;BME280;67223;51.102;5.882;2023-03-14T01:36:14;98956.53;;;9.84;80.04
78016;BME280;67223;51.102;5.882;2023-03-14T01:38:40;98962.88;;;9.75;80.39
78016;BME280;67223;51.102;5.882;2023-03-14T01:41:08;98947.88;;;9.74;80.46
78016;BME280;67223;51.102;5.882;2023-03-14T01:43:37;98956.53;;;9.84;79.88
78016;BME280;67223;51.102;5.882;2023-03-14T01:51:43;98952.22;;;9.83;79.69
78016;BME280;67223;51.102;5.882;2023-03-14T01:54:17;98951.56;;;9.81;79.08
78016;BME280;67223;51.102;5.882;2023-03-14T01:56:46;98940.72;;;9.74;80.26
78016;BME280;67223;51.102;5.882;2023-03-14T01:59:13;98940.56;;;9.76;79.60
78016;BME280;67223;51.102;5.882;2023-03-14T02:01:41;98928.03;;;9.68;80.23
78016;BME280;67223;51.102;5.882;2023-03-14T02:04:08;98918.41;;;9.75;79.64
78016;BME280;67223;51.102;5.882;2023-03-14T02:06:52;98922.22;;;9.73;79.27
78016;BME280;67223;51.102;5.882;2023-03-14T02:09:20;98917.53;;;9.67;79.43
78016;BME280;67223;51.102;5.882;2023-03-14T02:11:45;98923.91;;;9.66;79.67
78016;BME280;67223;51.102;5.882;2023-03-14T02:14:19;98919.56;;;9.73;79.43
78016;BME280;67223;51.102;5.882;2023-03-14T02:16:46;98920.38;;;9.73;78.75
78016;BME280;67223;51.102;5.882;2023-03-14T02:19:13;98915.22;;;9.72;79.01
78016;BME280;67223;51.102;5.882;2023-03-14T02:24:25;98922.56;;;9.70;79.33
78016;BME280;67223;51.102;5.882;2023-03-14T02:27:21;98920.22;;;9.75;79.07
78016;BME280;67223;51.102;5.882;2023-03-14T02:29:56;98920.88;;;9.69;79.08
78016;BME280;67223;51.102;5.882;2023-03-14T02:32:25;98917.72;;;9.73;78.73
78016;BME280;67223;51.102;5.882;2023-03-14T02:34:57;98913.22;;;9.82;78.67
78016;BME280;67223;51.102;5.882;2023-03-14T02:37:28;98916.56;;;9.76;78.86
78016;BME280;67223;51.102;5.882;2023-03-14T02:39:55;98915.22;;;9.80;78.72
78016;BME280;67223;51.102;5.882;2023-03-14T02:42:21;98915.06;;;9.89;78.01
78016;BME280;67223;51.102;5.882;2023-03-14T02:45:35;98915.56;;;9.85;78.29
78016;BME280;67223;51.102;5.882;2023-03-14T02:47:34;98926.22;;;9.85;78.34
78016;BME280;67223;51.102;5.882;2023-03-14T02:50:09;98917.25;;;9.86;78.39
78016;BME280;67223;51.102;5.882;2023-03-14T02:52:35;98915.72;;;9.83;78.68
78016;BME280;67223;51.102;5.882;2023-03-14T02:55:00;98920.56;;;9.88;78.63
78016;BME280;67223;51.102;5.882;2023-03-14T02:57:26;98919.56;;;9.81;79.07
78016;BME280;67223;51.102;5.882;2023-03-14T02:59:51;98914.06;;;9.74;79.51
78016;BME280;67223;51.102;5.882;2023-03-14T03:04:54;98915.75;;;9.75;80.23
78016;BME280;67223;51.102;5.882;2023-03-14T03:07:20;98923.88;;;9.74;80.58
78016;BME280;67223;51.102;5.882;2023-03-14T03:09:46;98919.06;;;9.77;80.97
78016;BME280;67223;51.102;5.882;2023-03-14T03:12:11;98924.22;;;9.63;81.89
78016;BME280;67223;51.102;5.882;2023-03-14T03:14:37;98924.84;;;9.57;82.04
78016;BME280;67223;51.102;5.882;2023-03-14T03:17:04;98921.84;;;9.43;83.05
78016;BME280;67223;51.102;5.882;2023-03-14T03:19:30;98924.47;;;9.27;83.80
78016;BME280;67223;51.102;5.882;2023-03-14T03:21:56;98916.03;;;9.40;84.06
78016;BME280;67223;51.102;5.882;2023-03-14T03:24:21;98910.53;;;9.41;84.28
78016;BME280;67223;51.102;5.882;2023-03-14T03:26:47;98914.38;;;9.39;84.36
78016;BME280;67223;51.102;5.882;2023-03-14T03:29:12;98902.88;;;9.30;84.38
78016;BME280;67223;51.102;5.882;2023-03-14T03:31:38;98902.69;;;9.24;85.38
78016;BME280;67223;51.102;5.882;2023-03-14T03:34:04;98897.50;;;9.22;85.55
78016;BME280;67223;51.102;5.882;2023-03-14T03:36:29;98895.69;;;9.23;85.46
78016;BME280;67223;51.102;5.882;2023-03-14T03:38:54;98896.16;;;9.18;85.88
78016;BME280;67223;51.102;5.882;2023-03-14T03:41:20;98894.00;;;9.05;86.38
78016;BME280;67223;51.102;5.882;2023-03-14T03:43:45;98899.66;;;9.19;86.19
78016;BME280;67223;51.102;5.882;2023-03-14T03:46:11;98880.00;;;9.03;87.13
78016;BME280;67223;51.102;5.882;2023-03-14T03:48:36;98889.13;;;8.93;86.98
78016;BME280;67223;51.102;5.882;2023-03-14T03:51:02;98881.50;;;9.06;86.84
78016;BME280;67223;51.102;5.882;2023-03-14T03:53:27;98887.47;;;9.00;86.81
78016;BME280;67223;51.102;5.882;2023-03-14T03:55:53;98880.81;;;8.96;86.51
78016;BME280;67223;51.102;5.882;2023-03-14T03:58:19;98880.75;;;8.80;86.77
78016;BME280;67223;51.102;5.882;2023-03-14T04:00:44;98883.97;;;8.91;87.06
78016;BME280;67223;51.102;5.882;2023-03-14T04:03:10;98889.13;;;8.93;86.79
78016;BME280;67223;51.102;5.882;2023-03-14T04:05:35;98887.06;;;8.71;87.28
78016;BME280;67223;51.102;5.882;2023-03-14T04:08:01;98881.13;;;8.93;87.83
78016;BME280;67223;51.102;5.882;2023-03-14T04:10:28;98883.31;;;8.97;87.48
78016;BME280;67223;51.102;5.882;2023-03-14T04:12:53;98887.16;;;9.03;87.66
78016;BME280;67223;51.102;5.882;2023-03-14T04:15:19;98883.44;;;8.88;87.85
78016;BME280;67223;51.102;5.882;2023-03-14T04:17:44;98881.59;;;8.80;87.85
78016;BME280;67223;51.102;5.882;2023-03-14T04:20:10;98871.59;;;8.74;89.11
78016;BME280;67223;51.102;5.882;2023-03-14T04:22:37;98868.94;;;8.74;89.12
78016;BME280;67223;51.102;5.882;2023-03-14T04:25:02;98871.81;;;8.89;89.34
78016;BME280;67223;51.102;5.882;2023-03-14T04:27:28;98875.63;;;8.86;89.35
78016;BME280;67223;51.102;5.882;2023-03-14T04:29:54;98869.16;;;8.89;89.44
78016;BME280;67223;51.102;5.882;2023-03-14T04:32:19;98867.03;;;9.00;89.42
78016;BME280;67223;51.102;5.882;2023-03-14T04:34:45;98869.50;;;9.02;89.05
78016;BME280;67223;51.102;5.882;2023-03-14T04:37:10;98875.50;;;9.04;88.64
78016;BME280;67223;51.102;5.882;2023-03-14T04:39:39;98857.22;;;9.01;88.68
78016;BME280;67223;51.102;5.882;2023-03-14T04:42:05;98858.19;;;9.00;88.95
78016;BME280;67223;51.102;5.882;2023-03-14T04:44:31;98855.84;;;8.97;89.63
78016;BME280;67223;51.102;5.882;2023-03-14T04:46:56;98854.22;;;9.04;88.32
78016;BME280;67223;51.102;5.882;2023-03-14T04:49:22;98848.53;;;9.07;88.52
78016;BME280;67223;51.102;5.882;2023-03-14T04:51:48;98848.03;;;9.03;88.88
78016;BME280;67223;51.102;5.882;2023-03-14T04:54:19;98850.56;;;9.13;88.60
78016;BME280;67223;51.102;5.882;2023-03-14T04:56:45;98849.72;;;9.04;88.97
78016;BME280;67223;51.102;5.882;2023-03-14T04:59:13;98832.75;;;9.05;88.96
78016;BME280;67223;51.102;5.882;2023-03-14T05:01:39;98837.53;;;8.94;89.44
78016;BME280;67223;51.102;5.882;2023-03-14T05:04:08;98838.88;;;8.90;89.33
78016;BME280;67223;51.102;5.882;2023-03-14T05:06:34;98831.22;;;8.95;89.35
78016;BME280;67223;51.102;5.882;2023-03-14T05:09:00;98832.22;;;8.94;89.46
78016;BME280;67223;51.102;5.882;2023-03-14T05:11:26;98820.94;;;9.00;89.10
78016;BME280;67223;51.102;5.882;2023-03-14T05:13:51;98796.97;;;9.57;88.89
78016;BME280;67223;51.102;5.882;2023-03-14T05:16:16;98816.78;;;9.05;88.86
78016;BME280;67223;51.102;5.882;2023-03-14T05:18:42;98822.09;;;9.05;89.28
78016;BME280;67223;51.102;5.882;2023-03-14T05:21:07;98816.94;;;9.04;89.28
78016;BME280;67223;51.102;5.882;2023-03-14T05:23:33;98812.13;;;9.16;88.71
78016;BME280;67223;51.102;5.882;2023-03-14T05:25:58;98813.28;;;9.13;89.02
78016;BME280;67223;51.102;5.882;2023-03-14T05:28:24;98807.81;;;9.15;88.64
78016;BME280;67223;51.102;5.882;2023-03-14T05:30:50;98803.66;;;9.20;88.61
78016;BME280;67223;51.102;5.882;2023-03-14T05:33:15;98801.78;;;9.04;88.75
78016;BME280;67223;51.102;5.882;2023-03-14T05:35:42;98799.97;;;9.05;88.83
78016;BME280;67223;51.102;5.882;2023-03-14T05:38:07;98801.59;;;8.98;88.56
78016;BME280;67223;51.102;5.882;2023-03-14T05:40:34;98801.19;;;10.06;90.40
78016;BME280;67223;51.102;5.882;2023-03-14T05:42:59;98794.78;;;9.12;89.95
78016;BME280;67223;51.102;5.882;2023-03-14T05:45:25;98798.44;;;9.02;89.81
78016;BME280;67223;51.102;5.882;2023-03-14T05:47:50;98804.63;;;9.11;90.10
78016;BME280;67223;51.102;5.882;2023-03-14T05:50:16;98807.13;;;8.96;90.27
78016;BME280;67223;51.102;5.882;2023-03-14T05:52:41;98804.31;;;9.06;90.14
78016;BME280;67223;51.102;5.882;2023-03-14T05:55:07;98808.44;;;9.00;90.02
78016;BME280;67223;51.102;5.882;2023-03-14T05:57:33;98797.28;;;8.97;90.20
78016;BME280;67223;51.102;5.882;2023-03-14T05:59:58;98807.97;;;9.29;89.31
78016;BME280;67223;51.102;5.882;2023-03-14T06:02:23;98804.63;;;9.11;89.97
78016;BME280;67223;51.102;5.882;2023-03-14T06:04:49;98798.13;;;8.97;89.72
78016;BME280;67223;51.102;5.882;2023-03-14T06:07:14;98801.66;;;9.38;89.07
78016;BME280;67223;51.102;5.882;2023-03-14T06:09:40;98796.16;;;9.16;89.39
78016;BME280;67223;51.102;5.882;2023-03-14T06:12:06;98803.31;;;9.23;89.29
78016;BME280;67223;51.102;5.882;2023-03-14T06:14:31;98807.47;;;9.18;88.83
78016;BME280;67223;51.102;5.882;2023-03-14T06:16:57;98806.13;;;9.22;89.26
78016;BME280;67223;51.102;5.882;2023-03-14T06:19:25;98803.66;;;9.36;88.75
78016;BME280;67223;51.102;5.882;2023-03-14T06:21:51;98807.47;;;9.26;88.76
78016;BME280;67223;51.102;5.882;2023-03-14T06:24:17;98809.66;;;9.30;88.96
78016;BME280;67223;51.102;5.882;2023-03-14T06:26:42;98810.47;;;9.39;88.72
78016;BME280;67223;51.102;5.882;2023-03-14T06:29:07;98808.31;;;9.26;89.07
78016;BME280;67223;51.102;5.882;2023-03-14T06:31:33;98800.47;;;9.17;89.28
78016;BME280;67223;51.102;5.882;2023-03-14T06:33:59;98800.97;;;9.20;88.94
78016;BME280;67223;51.102;5.882;2023-03-14T06:36:24;98806.81;;;9.40;88.97
78016;BME280;67223;51.102;5.882;2023-03-14T06:38:50;98803.13;;;9.17;89.01
78016;BME280;67223;51.102;5.882;2023-03-14T06:41:15;98805.78;;;9.08;90.07
78016;BME280;67223;51.102;5.882;2023-03-14T06:43:41;98813.28;;;9.13;89.82
78016;BME280;67223;51.102;5.882;2023-03-14T06:46:07;98808.94;;;9.04;89.88
78016;BME280;67223;51.102;5.882;2023-03-14T06:48:32;98808.31;;;9.10;89.67
78016;BME280;67223;51.102;5.882;2023-03-14T06:50:58;98809.28;;;9.17;90.37
78016;BME280;67223;51.102;5.882;2023-03-14T06:53:23;98813.97;;;9.15;89.88
78016;BME280;67223;51.102;5.882;2023-03-14T06:55:49;98813.31;;;9.21;89.50
78016;BME280;67223;51.102;5.882;2023-03-14T06:58:14;98814.78;;;9.24;89.08
78016;BME280;67223;51.102;5.882;2023-03-14T07:00:40;98810.47;;;9.31;89.53
78016;BME280;67223;51.102;5.882;2023-03-14T07:03:05;98816.44;;;9.33;89.58
78016;BME280;67223;51.102;5.882;2023-03-14T07:05:31;98816.28;;;9.34;89.44
78016;BME280;67223;51.102;5.882;2023-03-14T07:07:57;98814.13;;;9.54;88.70
78016;BME280;67223;51.102;5.882;2023-03-14T07:10:22;98821.63;;;9.50;88.64
78016;BME280;67223;51.102;5.882;2023-03-14T07:12:48;98820.44;;;9.53;88.46
78016;BME280;67223;51.102;5.882;2023-03-14T07:15:14;98814.97;;;9.55;88.61
78016;BME280;67223;51.102;5.882;2023-03-14T07:17:39;98816.28;;;9.59;88.48
78016;BME280;67223;51.102;5.882;2023-03-14T07:20:05;98831.94;;;9.54;87.88
78016;BME280;67223;51.102;5.882;2023-03-14T07:22:32;98838.59;;;9.58;88.57
78016;BME280;67223;51.102;5.882;2023-03-14T07:24:57;98836.25;;;9.79;87.49
78016;BME280;67223;51.102;5.882;2023-03-14T07:27:23;98845.22;;;10.02;86.97
78016;BME280;67223;51.102;5.882;2023-03-14T07:29:48;98835.44;;;9.70;87.16
78016;BME280;67223;51.102;5.882;2023-03-14T07:32:14;98834.25;;;9.73;87.24
78016;BME280;67223;51.102;5.882;2023-03-14T07:34:41;98847.09;;;9.85;87.06
78016;BME280;67223;51.102;5.882;2023-03-14T07:37:07;98849.06;;;9.83;87.28
78016;BME280;67223;51.102;5.882;2023-03-14T07:39:32;98855.22;;;9.92;87.18
78016;BME280;67223;51.102;5.882;2023-03-14T07:41:57;98850.22;;;9.97;87.42
78016;BME280;67223;51.102;5.882;2023-03-14T07:44:23;98861.72;;;10.06;87.37
78016;BME280;67223;51.102;5.882;2023-03-14T07:46:48;98862.53;;;10.06;87.38
78016;BME280;67223;51.102;5.882;2023-03-14T07:49:14;98865.72;;;9.93;87.36
78016;BME280;67223;51.102;5.882;2023-03-14T07:51:39;98866.72;;;10.01;87.43
78016;BME280;67223;51.102;5.882;2023-03-14T07:54:05;98880.19;;;10.07;87.30
78016;BME280;67223;51.102;5.882;2023-03-14T07:56:30;98891.38;;;10.35;86.47
78016;BME280;67223;51.102;5.882;2023-03-14T07:58:56;98886.53;;;10.06;86.67
78016;BME280;67223;51.102;5.882;2023-03-14T08:01:22;98902.03;;;10.03;87.04
78016;BME280;67223;51.102;5.882;2023-03-14T08:03:47;98899.13;;;10.61;85.42
78016;BME280;67223;51.102;5.882;2023-03-14T08:06:13;98905.38;;;10.13;86.30
78016;BME280;67223;51.102;5.882;2023-03-14T08:08:38;98907.06;;;10.06;86.28
78016;BME280;67223;51.102;5.882;2023-03-14T08:11:05;98904.88;;;10.17;85.72
78016;BME280;67223;51.102;5.882;2023-03-14T08:13:33;98909.03;;;10.04;86.02
78016;BME280;67223;51.102;5.882;2023-03-14T08:15:59;98910.91;;;10.19;85.92
78016;BME280;67223;51.102;5.882;2023-03-14T08:18:24;98928.00;;;10.49;85.44
78016;BME280;67223;51.102;5.882;2023-03-14T08:20:50;98972.16;;;10.68;84.41
78016;BME280;67223;51.102;5.882;2023-03-14T08:23:15;98993.72;;;10.50;84.04
78016;BME280;67223;51.102;5.882;2023-03-14T08:25:41;99012.53;;;9.76;82.66
78016;BME280;67223;51.102;5.882;2023-03-14T08:28:06;99030.59;;;9.40;81.96
78016;BME280;67223;51.102;5.882;2023-03-14T08:30:32;99038.44;;;9.07;80.98
78016;BME280;67223;51.102;5.882;2023-03-14T08:32:57;99052.34;;;9.27;80.47
78016;BME280;67223;51.102;5.882;2023-03-14T08:35:24;99055.31;;;9.24;80.67
78016;BME280;67223;51.102;5.882;2023-03-14T08:37:50;99052.41;;;10.10;79.58
78016;BME280;67223;51.102;5.882;2023-03-14T08:40:17;99064.78;;;9.19;79.87
78016;BME280;67223;51.102;5.882;2023-03-14T08:42:43;99082.44;;;8.94;81.09
78016;BME280;67223;51.102;5.882;2023-03-14T08:45:11;99079.56;;;8.87;81.66
78016;BME280;67223;51.102;5.882;2023-03-14T08:47:37;99090.19;;;8.79;82.00
78016;BME280;67223;51.102;5.882;2023-03-14T08:50:03;99103.44;;;8.97;81.88
78016;BME280;67223;51.102;5.882;2023-03-14T08:52:30;99106.88;;;8.89;81.77
78016;BME280;67223;51.102;5.882;2023-03-14T08:54:56;99132.53;;;8.73;82.14
78016;BME280;67223;51.102;5.882;2023-03-14T08:57:21;99138.41;;;9.02;82.74
78016;BME280;67223;51.102;5.882;2023-03-14T08:59:56;99143.91;;;9.26;80.92
78016;BME280;67223;51.102;5.882;2023-03-14T09:02:22;99151.25;;;8.63;81.36
78016;BME280;67223;51.102;5.882;2023-03-14T09:04:49;99159.69;;;8.58;81.20
78016;BME280;67223;51.102;5.882;2023-03-14T09:07:15;99170.88;;;8.44;82.07
78016;BME280;67223;51.102;5.882;2023-03-14T09:09:40;99173.16;;;8.39;82.07
78016;BME280;67223;51.102;5.882;2023-03-14T09:12:06;99183.03;;;8.47;81.49
78016;BME280;67223;51.102;5.882;2023-03-14T09:14:31;99205.78;;;8.59;81.52
78016;BME280;67223;51.102;5.882;2023-03-14T09:16:57;99202.28;;;8.76;81.56
78016;BME280;67223;51.102;5.882;2023-03-14T09:19:23;99222.72;;;8.93;80.99
78016;BME280;67223;51.102;5.882;2023-03-14T09:21:48;99233.13;;;8.87;80.62
78016;BME280;67223;51.102;5.882;2023-03-14T09:24:14;99242.56;;;8.99;80.41
78016;BME280;67223;51.102;5.882;2023-03-14T09:26:39;99250.75;;;9.23;80.16
78016;BME280;67223;51.102;5.882;2023-03-14T09:29:05;99266.72;;;9.23;79.49
78016;BME280;67223;51.102;5.882;2023-03-14T09:31:30;99270.31;;;9.14;79.46
78016;BME280;67223;51.102;5.882;2023-03-14T09:33:56;99268.72;;;9.73;78.29
78016;BME280;67223;51.102;5.882;2023-03-14T09:36:22;99279.84;;;10.20;77.29
78016;BME280;67223;51.102;5.882;2023-03-14T09:38:47;99293.03;;;9.96;75.04
78016;BME280;67223;51.102;5.882;2023-03-14T09:41:34;99298.41;;;10.04;75.78
78016;BME280;67223;51.102;5.882;2023-03-14T09:44:06;99309.53;;;9.47;77.01
78016;BME280;67223;51.102;5.882;2023-03-14T09:46:36;99325.31;;;8.88;78.66
78016;BME280;67223;51.102;5.882;2023-03-14T09:49:19;99341.69;;;9.11;78.66
78016;BME280;67223;51.102;5.882;2023-03-14T09:51:47;99345.56;;;8.98;79.47
78016;BME280;67223;51.102;5.882;2023-03-14T09:54:36;99350.50;;;9.46;78.49
78016;BME280;67223;51.102;5.882;2023-03-14T09:57:04;99359.47;;;9.89;76.73
78016;BME280;67223;51.102;5.882;2023-03-14T09:59:31;99367.84;;;9.33;77.88
78016;BME280;67223;51.102;5.882;2023-03-14T10:02:13;99379.81;;;9.11;79.18
78016;BME280;67223;51.102;5.882;2023-03-14T10:04:40;99381.56;;;9.99;77.69
78016;BME280;67223;51.102;5.882;2023-03-14T10:07:30;99400.28;;;9.64;75.89
78016;BME280;67223;51.102;5.882;2023-03-14T10:09:56;99401.72;;;10.87;74.58
78016;BME280;67223;51.102;5.882;2023-03-14T10:12:32;99407.72;;;10.47;74.12
78016;BME280;67223;51.102;5.882;2023-03-14T10:15:03;99410.63;;;10.62;73.48
78016;BME280;67223;51.102;5.882;2023-03-14T10:17:28;99413.84;;;11.32;72.73
78016;BME280;67223;51.102;5.882;2023-03-14T10:19:59;99425.72;;;10.19;72.94
78016;BME280;67223;51.102;5.882;2023-03-14T10:22:32;99435.00;;;10.67;72.16
78016;BME280;67223;51.102;5.882;2023-03-14T10:25:04;99440.38;;;11.17;72.95
78016;BME280;67223;51.102;5.882;2023-03-14T10:27:32;99451.03;;;11.01;72.26
78016;BME280;67223;51.102;5.882;2023-03-14T10:30:04;99456.75;;;10.46;71.94
78016;BME280;67223;51.102;5.882;2023-03-14T10:32:35;99467.28;;;9.86;73.70
78016;BME280;67223;51.102;5.882;2023-03-14T10:37:34;99484.88;;;9.62;74.67
78016;BME280;67223;51.102;5.882;2023-03-14T10:40:01;99488.84;;;9.58;74.83
78016;BME280;67223;51.102;5.882;2023-03-14T10:42:39;99505.69;;;9.76;75.12
78016;BME280;67223;51.102;5.882;2023-03-14T10:45:39;99523.00;;;9.17;75.72
78016;BME280;67223;51.102;5.882;2023-03-14T10:48:18;99556.34;;;8.94;77.17
78016;BME280;67223;51.102;5.882;2023-03-14T10:53:24;99577.59;;;8.67;77.64
78016;BME280;67223;51.102;5.882;2023-03-14T10:55:50;99589.66;;;8.51;77.61
78016;BME280;67223;51.102;5.882;2023-03-14T10:58:24;99598.19;;;8.45;78.74
78016;BME280;67223;51.102;5.882;2023-03-14T11:03:54;99620.84;;;8.11;78.94
78016;BME280;67223;51.102;5.882;2023-03-14T11:06:48;99635.53;;;8.05;79.23
78016;BME280;67223;51.102;5.882;2023-03-14T11:09:25;99637.78;;;8.10;78.45
78016;BME280;67223;51.102;5.882;2023-03-14T11:12:04;99655.41;;;8.01;77.18
78016;BME280;67223;51.102;5.882;2023-03-14T11:14:46;99662.00;;;8.07;78.11
78016;BME280;67223;51.102;5.882;2023-03-14T11:17:38;99674.03;;;8.20;77.41
78016;BME280;67223;51.102;5.882;2023-03-14T11:22:53;99683.13;;;8.18;75.64
78016;BME280;67223;51.102;5.882;2023-03-14T11:28:01;99709.94;;;8.64;74.71
78016;BME280;67223;51.102;5.882;2023-03-14T11:30:49;99718.47;;;8.49;73.36
78016;BME280;67223;51.102;5.882;2023-03-14T11:36:07;99731.03;;;8.37;73.86
78016;BME280;67223;51.102;5.882;2023-03-14T11:38:47;99740.09;;;8.15;70.73
78016;BME280;67223;51.102;5.882;2023-03-14T11:43:58;99761.06;;;8.09;69.34
78016;BME280;67223;51.102;5.882;2023-03-14T11:51:50;99787.59;;;8.30;70.11
78016;BME280;67223;51.102;5.882;2023-03-14T11:54:55;99796.88;;;8.35;71.10
78016;BME280;67223;51.102;5.882;2023-03-14T11:57:23;99808.00;;;8.29;72.08
78016;BME280;67223;51.102;5.882;2023-03-14T12:00:04;99812.28;;;8.41;72.63
78016;BME280;67223;51.102;5.882;2023-03-14T12:02:51;99816.09;;;8.28;70.97
78016;BME280;67223;51.102;5.882;2023-03-14T12:10:49;99830.63;;;8.44;69.51
78016;BME280;67223;51.102;5.882;2023-03-14T12:13:17;99840.88;;;8.58;69.52
78016;BME280;67223;51.102;5.882;2023-03-14T12:15:54;99843.44;;;8.79;68.67
78016;BME280;67223;51.102;5.882;2023-03-14T12:18:28;99843.56;;;8.78;68.45
78016;BME280;67223;51.102;5.882;2023-03-14T12:20:58;99854.53;;;8.94;68.72
78016;BME280;67223;51.102;5.882;2023-03-14T12:23:24;99856.38;;;9.03;66.93
78016;BME280;67223;51.102;5.882;2023-03-14T12:28:33;99866.47;;;9.09;65.65
78016;BME280;67223;51.102;5.882;2023-03-14T12:39:41;99910.63;;;9.12;66.56
78016;BME280;67223;51.102;5.882;2023-03-14T12:42:17;99938.81;;;9.14;66.52
78016;BME280;67223;51.102;5.882;2023-03-14T12:44:51;99940.38;;;8.16;69.20
78016;BME280;67223;51.102;5.882;2023-03-14T12:49:42;99968.94;;;7.61;71.74
78016;BME280;67223;51.102;5.882;2023-03-14T12:52:15;99982.09;;;7.31;72.61
78016;BME280;67223;51.102;5.882;2023-03-14T12:54:50;99982.31;;;7.28;72.83
78016;BME280;67223;51.102;5.882;2023-03-14T12:57:42;99987.41;;;7.31;73.65
78016;BME280;67223;51.102;5.882;2023-03-14T13:00:30;99974.16;;;7.20;73.19
78016;BME280;67223;51.102;5.882;2023-03-14T13:03:12;99982.00;;;7.21;72.70
78016;BME280;67223;51.102;5.882;2023-03-14T13:05:51;99989.31;;;7.29;73.14
78016;BME280;67223;51.102;5.882;2023-03-14T13:08:36;100000.06;;;7.27;73.33
78016;BME280;67223;51.102;5.882;2023-03-14T13:11:05;99997.25;;;7.51;73.31
78016;BME280;67223;51.102;5.882;2023-03-14T13:13:34;100006.69;;;7.76;73.67
78016;BME280;67223;51.102;5.882;2023-03-14T13:16:01;100019.84;;;7.77;71.59
78016;BME280;67223;51.102;5.882;2023-03-14T13:21:03;100024.19;;;7.78;71.76
78016;BME280;67223;51.102;5.882;2023-03-14T13:23:34;100030.31;;;7.90;71.86
78016;BME280;67223;51.102;5.882;2023-03-14T13:26:01;100029.38;;;7.80;71.79
78016;BME280;67223;51.102;5.882;2023-03-14T13:28:29;100036.72;;;7.88;71.74
78016;BME280;67223;51.102;5.882;2023-03-14T13:31:02;100044.13;;;8.05;71.41
78016;BME280;67223;51.102;5.882;2023-03-14T13:33:28;100050.06;;;8.29;72.47
78016;BME280;67223;51.102;5.882;2023-03-14T13:36:02;100052.91;;;8.16;71.17
78016;BME280;67223;51.102;5.882;2023-03-14T13:38:31;100058.31;;;8.26;70.10
78016;BME280;67223;51.102;5.882;2023-03-14T13:40:59;100063.91;;;8.44;69.46
78016;BME280;67223;51.102;5.882;2023-03-14T13:43:28;100071.03;;;8.43;68.49
78016;BME280;67223;51.102;5.882;2023-03-14T13:48:28;100084.91;;;8.68;67.29
78016;BME280;67223;51.102;5.882;2023-03-14T13:51:07;100094.47;;;8.70;67.82
78016;BME280;67223;51.102;5.882;2023-03-14T13:53:46;100102.00;;;8.65;65.57
78016;BME280;67223;51.102;5.882;2023-03-14T13:56:12;100113.00;;;8.72;64.23
78016;BME280;67223;51.102;5.882;2023-03-14T13:58:39;100116.69;;;8.59;64.57
78016;BME280;67223;51.102;5.882;2023-03-14T14:01:19;100128.75;;;8.63;63.86
78016;BME280;67223;51.102;5.882;2023-03-14T14:03:50;100132.59;;;8.71;63.62
78016;BME280;67223;51.102;5.882;2023-03-14T14:06:26;100136.53;;;8.55;63.29
78016;BME280;67223;51.102;5.882;2023-03-14T14:08:54;100137.31;;;8.46;62.90
78016;BME280;67223;51.102;5.882;2023-03-14T14:11:46;100139.53;;;8.41;63.45
78016;BME280;67223;51.102;5.882;2023-03-14T14:16:47;100161.91;;;8.59;64.14